Terminal Aerodrome Forecast
Issued by NWS Wilmington, OH

Current Version | Previous Version | Graphics & Text | Print | Product List | Glossary On
Versions: 1 2 3 4 5 6 7 8 9 10 11 12 13 14 15 16 17 18
088
FTUS41 KILN 090906 AAA
TAFDAY
TAF AMD
KDAY 090906Z 0909/1006 28012KT 5SM -SN OVC015
      TEMPO 0910/0912 2SM -SN OVC025
     FM091500 28016G24KT P6SM VCSH OVC022
     FM092300 28014G20KT 5SM -SHSN OVC025=

USA.gov is the U.S. government's official web portal to all federal, state and local government web resources and services.